sensor_id;sensor_type;location;lat;lon;timestamp;temperature;humidity
23379;DHT22;11862;46.070;13.222;2022-10-16T00:00:43;14.90;99.90
23379;DHT22;11862;46.070;13.222;2022-10-16T00:03:10;14.80;99.90
23379;DHT22;11862;46.070;13.222;2022-10-16T00:05:41;14.80;99.90
23379;DHT22;11862;46.070;13.222;2022-10-16T00:08:09;14.80;99.90
23379;DHT22;11862;46.070;13.222;2022-10-16T00:10:35;14.70;99.90
23379;DHT22;11862;46.070;13.222;2022-10-16T00:13:01;14.60;99.90
23379;DHT22;11862;46.070;13.222;2022-10-16T00:15:27;14.60;99.90
23379;DHT22;11862;46.070;13.222;2022-10-16T00:17:53;14.60;99.90
23379;DHT22;11862;46.070;13.222;2022-10-16T00:20:19;14.60;99.90
23379;DHT22;11862;46.070;13.222;2022-10-16T00:22:45;14.60;99.90
23379;DHT22;11862;46.070;13.222;2022-10-16T00:25:11;14.60;99.90
23379;DHT22;11862;46.070;13.222;2022-10-16T00:27:37;14.60;99.90
23379;DHT22;11862;46.070;13.222;2022-10-16T00:30:03;14.60;99.90
23379;DHT22;11862;46.070;13.222;2022-10-16T00:32:29;14.60;99.90
23379;DHT22;11862;46.070;13.222;2022-10-16T00:34:56;14.60;99.90
23379;DHT22;11862;46.070;13.222;2022-10-16T00:37:22;14.60;99.90
23379;DHT22;11862;46.070;13.222;2022-10-16T00:39:48;14.60;99.90
23379;DHT22;11862;46.070;13.222;2022-10-16T00:42:15;14.60;99.90
23379;DHT22;11862;46.070;13.222;2022-10-16T00:47:43;14.60;99.90
23379;DHT22;11862;46.070;13.222;2022-10-16T00:52:44;14.60;99.90
23379;DHT22;11862;46.070;13.222;2022-10-16T00:55:12;14.60;99.90
23379;DHT22;11862;46.070;13.222;2022-10-16T00:57:39;14.60;99.90
23379;DHT22;11862;46.070;13.222;2022-10-16T01:00:08;14.80;99.90
23379;DHT22;11862;46.070;13.222;2022-10-16T01:02:34;14.80;99.90
23379;DHT22;11862;46.070;13.222;2022-10-16T01:05:00;14.80;99.90
23379;DHT22;11862;46.070;13.222;2022-10-16T01:20:44;14.80;99.90
23379;DHT22;11862;46.070;13.222;2022-10-16T01:23:48;14.90;99.90
23379;DHT22;11862;46.070;13.222;2022-10-16T01:29:37;15.00;99.90
23379;DHT22;11862;46.070;13.222;2022-10-16T01:35:21;14.90;99.90
23379;DHT22;11862;46.070;13.222;2022-10-16T01:38:08;15.00;99.90
23379;DHT22;11862;46.070;13.222;2022-10-16T01:40:39;14.90;99.90
23379;DHT22;11862;46.070;13.222;2022-10-16T01:43:13;14.90;99.90
23379;DHT22;11862;46.070;13.222;2022-10-16T01:45:41;14.90;99.90
23379;DHT22;11862;46.070;13.222;2022-10-16T01:48:11;14.90;99.90
23379;DHT22;11862;46.070;13.222;2022-10-16T01:50:40;15.00;99.90
23379;DHT22;11862;46.070;13.222;2022-10-16T01:53:10;15.00;99.90
23379;DHT22;11862;46.070;13.222;2022-10-16T01:55:42;15.10;99.90
23379;DHT22;11862;46.070;13.222;2022-10-16T01:58:14;15.10;99.90
23379;DHT22;11862;46.070;13.222;2022-10-16T02:00:44;15.10;99.90
23379;DHT22;11862;46.070;13.222;2022-10-16T02:03:12;15.10;99.90
23379;DHT22;11862;46.070;13.222;2022-10-16T02:05:47;15.10;99.90
23379;DHT22;11862;46.070;13.222;2022-10-16T02:08:14;15.00;99.90
23379;DHT22;11862;46.070;13.222;2022-10-16T02:10:41;15.00;99.90
23379;DHT22;11862;46.070;13.222;2022-10-16T02:13:16;15.00;99.90
23379;DHT22;11862;46.070;13.222;2022-10-16T02:15:43;15.10;99.90
23379;DHT22;11862;46.070;13.222;2022-10-16T02:18:09;15.10;99.90
23379;DHT22;11862;46.070;13.222;2022-10-16T02:24:22;15.00;99.90
23379;DHT22;11862;46.070;13.222;2022-10-16T02:26:57;15.10;99.90
23379;DHT22;11862;46.070;13.222;2022-10-16T02:29:27;15.00;99.90
23379;DHT22;11862;46.070;13.222;2022-10-16T02:32:00;15.00;99.90
23379;DHT22;11862;46.070;13.222;2022-10-16T02:34:28;15.00;99.90
23379;DHT22;11862;46.070;13.222;2022-10-16T02:36:57;15.10;99.90
23379;DHT22;11862;46.070;13.222;2022-10-16T02:39:24;15.00;99.90
23379;DHT22;11862;46.070;13.222;2022-10-16T02:41:50;14.90;99.90
23379;DHT22;11862;46.070;13.222;2022-10-16T02:44:16;14.80;99.90
23379;DHT22;11862;46.070;13.222;2022-10-16T02:46:42;14.80;99.90
23379;DHT22;11862;46.070;13.222;2022-10-16T02:49:08;14.70;99.90
23379;DHT22;11862;46.070;13.222;2022-10-16T02:51:33;14.80;99.90
23379;DHT22;11862;46.070;13.222;2022-10-16T02:53:59;14.70;99.90
23379;DHT22;11862;46.070;13.222;2022-10-16T02:56:25;14.60;99.90
23379;DHT22;11862;46.070;13.222;2022-10-16T02:58:55;14.60;99.90
23379;DHT22;11862;46.070;13.222;2022-10-16T03:01:21;14.60;99.90
23379;DHT22;11862;46.070;13.222;2022-10-16T03:03:47;14.60;99.90
23379;DHT22;11862;46.070;13.222;2022-10-16T03:06:13;14.60;99.90
23379;DHT22;11862;46.070;13.222;2022-10-16T03:08:39;14.60;99.90
23379;DHT22;11862;46.070;13.222;2022-10-16T03:11:05;14.50;99.90
23379;DHT22;11862;46.070;13.222;2022-10-16T03:13:31;14.40;99.90
23379;DHT22;11862;46.070;13.222;2022-10-16T03:15:57;14.50;99.90
23379;DHT22;11862;46.070;13.222;2022-10-16T03:18:23;14.50;99.90
23379;DHT22;11862;46.070;13.222;2022-10-16T03:20:48;14.60;99.90
23379;DHT22;11862;46.070;13.222;2022-10-16T03:23:18;14.50;99.90
23379;DHT22;11862;46.070;13.222;2022-10-16T03:25:43;14.50;99.90
23379;DHT22;11862;46.070;13.222;2022-10-16T03:28:09;14.50;99.90
23379;DHT22;11862;46.070;13.222;2022-10-16T03:30:35;14.50;99.90
23379;DHT22;11862;46.070;13.222;2022-10-16T03:33:01;14.40;99.90
23379;DHT22;11862;46.070;13.222;2022-10-16T03:35:31;14.40;99.90
23379;DHT22;11862;46.070;13.222;2022-10-16T03:37:58;14.40;99.90
23379;DHT22;11862;46.070;13.222;2022-10-16T03:40:24;14.30;99.90
23379;DHT22;11862;46.070;13.222;2022-10-16T03:42:50;14.40;99.90
23379;DHT22;11862;46.070;13.222;2022-10-16T03:45:16;14.30;99.90
23379;DHT22;11862;46.070;13.222;2022-10-16T03:47:42;14.30;99.90
23379;DHT22;11862;46.070;13.222;2022-10-16T03:50:08;14.20;99.90
23379;DHT22;11862;46.070;13.222;2022-10-16T03:52:34;14.20;99.90
23379;DHT22;11862;46.070;13.222;2022-10-16T03:55:00;14.20;99.90
23379;DHT22;11862;46.070;13.222;2022-10-16T03:57:26;14.30;99.90
23379;DHT22;11862;46.070;13.222;2022-10-16T03:59:52;14.30;99.90
23379;DHT22;11862;46.070;13.222;2022-10-16T04:02:18;14.30;99.90
23379;DHT22;11862;46.070;13.222;2022-10-16T04:04:46;14.40;99.90
23379;DHT22;11862;46.070;13.222;2022-10-16T04:07:12;14.30;99.90
23379;DHT22;11862;46.070;13.222;2022-10-16T04:09:38;14.30;99.90
23379;DHT22;11862;46.070;13.222;2022-10-16T04:12:04;14.30;99.90
23379;DHT22;11862;46.070;13.222;2022-10-16T04:14:30;14.30;99.90
23379;DHT22;11862;46.070;13.222;2022-10-16T04:16:56;14.30;99.90
23379;DHT22;11862;46.070;13.222;2022-10-16T04:19:22;14.20;99.90
23379;DHT22;11862;46.070;13.222;2022-10-16T04:21:51;14.20;99.90
23379;DHT22;11862;46.070;13.222;2022-10-16T04:24:20;14.30;99.90
23379;DHT22;11862;46.070;13.222;2022-10-16T04:26:46;14.40;99.90
23379;DHT22;11862;46.070;13.222;2022-10-16T04:29:12;14.40;99.90
23379;DHT22;11862;46.070;13.222;2022-10-16T04:31:38;14.50;99.90
23379;DHT22;11862;46.070;13.222;2022-10-16T04:34:04;14.50;99.90
23379;DHT22;11862;46.070;13.222;2022-10-16T04:36:30;14.40;99.90
23379;DHT22;11862;46.070;13.222;2022-10-16T04:38:56;14.30;99.90
23379;DHT22;11862;46.070;13.222;2022-10-16T04:41:22;14.40;99.90
23379;DHT22;11862;46.070;13.222;2022-10-16T04:43:48;14.40;99.90
23379;DHT22;11862;46.070;13.222;2022-10-16T04:46:14;14.40;99.90
23379;DHT22;11862;46.070;13.222;2022-10-16T04:48:40;14.30;99.90
23379;DHT22;11862;46.070;13.222;2022-10-16T04:51:06;14.30;99.90
23379;DHT22;11862;46.070;13.222;2022-10-16T04:53:32;14.40;99.90
23379;DHT22;11862;46.070;13.222;2022-10-16T04:55:58;14.30;99.90
23379;DHT22;11862;46.070;13.222;2022-10-16T04:58:25;14.30;99.90
23379;DHT22;11862;46.070;13.222;2022-10-16T05:00:51;14.30;99.90
23379;DHT22;11862;46.070;13.222;2022-10-16T05:03:17;14.30;99.90
23379;DHT22;11862;46.070;13.222;2022-10-16T05:05:46;14.30;99.90
23379;DHT22;11862;46.070;13.222;2022-10-16T05:08:14;14.30;99.90
23379;DHT22;11862;46.070;13.222;2022-10-16T05:10:46;14.20;99.90
23379;DHT22;11862;46.070;13.222;2022-10-16T05:13:12;14.20;99.90
23379;DHT22;11862;46.070;13.222;2022-10-16T05:15:39;14.10;99.90
23379;DHT22;11862;46.070;13.222;2022-10-16T05:18:05;14.20;99.90
23379;DHT22;11862;46.070;13.222;2022-10-16T05:20:34;14.20;99.90
23379;DHT22;11862;46.070;13.222;2022-10-16T05:23:00;14.20;99.90
23379;DHT22;11862;46.070;13.222;2022-10-16T05:25:26;14.20;99.90
23379;DHT22;11862;46.070;13.222;2022-10-16T05:27:52;14.20;99.90
23379;DHT22;11862;46.070;13.222;2022-10-16T05:30:18;14.10;99.90
23379;DHT22;11862;46.070;13.222;2022-10-16T05:32:51;14.10;99.90
23379;DHT22;11862;46.070;13.222;2022-10-16T05:35:18;14.10;99.90
23379;DHT22;11862;46.070;13.222;2022-10-16T05:37:44;14.10;99.90
23379;DHT22;11862;46.070;13.222;2022-10-16T05:40:10;14.20;99.90
23379;DHT22;11862;46.070;13.222;2022-10-16T05:42:37;14.20;99.90
23379;DHT22;11862;46.070;13.222;2022-10-16T05:45:04;14.20;99.90
23379;DHT22;11862;46.070;13.222;2022-10-16T05:47:30;14.30;99.90
23379;DHT22;11862;46.070;13.222;2022-10-16T05:49:59;14.30;99.90
23379;DHT22;11862;46.070;13.222;2022-10-16T05:52:26;14.30;99.90
23379;DHT22;11862;46.070;13.222;2022-10-16T05:54:52;14.40;99.90
23379;DHT22;11862;46.070;13.222;2022-10-16T05:57:18;14.50;99.90
23379;DHT22;11862;46.070;13.222;2022-10-16T05:59:44;14.60;99.90
23379;DHT22;11862;46.070;13.222;2022-10-16T06:02:14;14.60;99.90
23379;DHT22;11862;46.070;13.222;2022-10-16T06:04:40;14.60;99.90
23379;DHT22;11862;46.070;13.222;2022-10-16T06:07:08;14.60;99.90
23379;DHT22;11862;46.070;13.222;2022-10-16T06:09:34;14.60;99.90
23379;DHT22;11862;46.070;13.222;2022-10-16T06:12:00;14.70;99.90
23379;DHT22;11862;46.070;13.222;2022-10-16T06:14:27;14.80;99.90
23379;DHT22;11862;46.070;13.222;2022-10-16T06:16:53;14.90;99.90
23379;DHT22;11862;46.070;13.222;2022-10-16T06:19:19;15.10;99.90
23379;DHT22;11862;46.070;13.222;2022-10-16T06:21:45;15.10;99.90
23379;DHT22;11862;46.070;13.222;2022-10-16T06:24:10;15.20;99.90
23379;DHT22;11862;46.070;13.222;2022-10-16T06:26:37;15.20;99.90
23379;DHT22;11862;46.070;13.222;2022-10-16T06:29:04;15.10;99.90
23379;DHT22;11862;46.070;13.222;2022-10-16T06:31:30;15.10;99.90
23379;DHT22;11862;46.070;13.222;2022-10-16T06:33:59;15.20;99.90
23379;DHT22;11862;46.070;13.222;2022-10-16T06:36:25;15.30;99.90
23379;DHT22;11862;46.070;13.222;2022-10-16T06:38:52;15.30;99.90
23379;DHT22;11862;46.070;13.222;2022-10-16T06:41:22;15.50;99.90
23379;DHT22;11862;46.070;13.222;2022-10-16T06:43:49;15.50;99.90
23379;DHT22;11862;46.070;13.222;2022-10-16T06:46:17;15.60;99.90
23379;DHT22;11862;46.070;13.222;2022-10-16T06:48:43;15.60;99.90
23379;DHT22;11862;46.070;13.222;2022-10-16T06:51:16;15.70;99.90
23379;DHT22;11862;46.070;13.222;2022-10-16T06:53:45;15.80;99.90
23379;DHT22;11862;46.070;13.222;2022-10-16T06:56:14;15.70;99.90
23379;DHT22;11862;46.070;13.222;2022-10-16T06:58:41;15.70;99.90
23379;DHT22;11862;46.070;13.222;2022-10-16T07:01:08;15.70;99.90
23379;DHT22;11862;46.070;13.222;2022-10-16T07:03:37;15.90;99.90
23379;DHT22;11862;46.070;13.222;2022-10-16T07:06:07;16.10;99.90
23379;DHT22;11862;46.070;13.222;2022-10-16T07:08:36;16.40;99.90
23379;DHT22;11862;46.070;13.222;2022-10-16T07:11:04;16.70;99.90
23379;DHT22;11862;46.070;13.222;2022-10-16T07:13:33;16.90;99.90
23379;DHT22;11862;46.070;13.222;2022-10-16T07:16:04;17.10;99.90
23379;DHT22;11862;46.070;13.222;2022-10-16T07:18:31;17.50;99.90
23379;DHT22;11862;46.070;13.222;2022-10-16T07:21:12;17.80;99.90
23379;DHT22;11862;46.070;13.222;2022-10-16T07:23:41;18.10;99.90
23379;DHT22;11862;46.070;13.222;2022-10-16T07:26:08;18.10;99.90
23379;DHT22;11862;46.070;13.222;2022-10-16T07:28:35;18.40;99.90
23379;DHT22;11862;46.070;13.222;2022-10-16T07:31:09;18.50;99.90
23379;DHT22;11862;46.070;13.222;2022-10-16T07:33:37;18.60;99.90
23379;DHT22;11862;46.070;13.222;2022-10-16T07:36:04;18.70;99.90
23379;DHT22;11862;46.070;13.222;2022-10-16T07:38:30;18.60;99.90
23379;DHT22;11862;46.070;13.222;2022-10-16T07:41:04;18.60;99.90
23379;DHT22;11862;46.070;13.222;2022-10-16T07:43:31;18.70;99.90
23379;DHT22;11862;46.070;13.222;2022-10-16T07:46:06;18.90;99.90
23379;DHT22;11862;46.070;13.222;2022-10-16T07:48:34;19.00;99.90
23379;DHT22;11862;46.070;13.222;2022-10-16T07:51:01;18.90;99.90
23379;DHT22;11862;46.070;13.222;2022-10-16T07:53:28;18.40;99.90
23379;DHT22;11862;46.070;13.222;2022-10-16T07:56:05;18.10;99.90
23379;DHT22;11862;46.070;13.222;2022-10-16T07:58:33;18.00;99.90
23379;DHT22;11862;46.070;13.222;2022-10-16T08:01:07;18.20;99.90
23379;DHT22;11862;46.070;13.222;2022-10-16T08:03:33;18.20;99.90
23379;DHT22;11862;46.070;13.222;2022-10-16T08:06:00;18.10;99.90
23379;DHT22;11862;46.070;13.222;2022-10-16T08:08:27;18.30;99.90
23379;DHT22;11862;46.070;13.222;2022-10-16T08:10:56;18.30;99.90
23379;DHT22;11862;46.070;13.222;2022-10-16T08:13:25;18.60;99.90
23379;DHT22;11862;46.070;13.222;2022-10-16T08:15:53;18.50;99.90
23379;DHT22;11862;46.070;13.222;2022-10-16T08:18:19;18.40;99.90
23379;DHT22;11862;46.070;13.222;2022-10-16T08:20:45;18.40;99.90
23379;DHT22;11862;46.070;13.222;2022-10-16T08:23:12;18.50;99.90
23379;DHT22;11862;46.070;13.222;2022-10-16T08:25:39;19.00;99.90
23379;DHT22;11862;46.070;13.222;2022-10-16T08:28:09;19.80;99.90
23379;DHT22;11862;46.070;13.222;2022-10-16T08:30:35;20.60;99.90
23379;DHT22;11862;46.070;13.222;2022-10-16T08:33:02;21.50;99.90
23379;DHT22;11862;46.070;13.222;2022-10-16T08:35:28;21.90;99.90
23379;DHT22;11862;46.070;13.222;2022-10-16T08:37:54;22.70;99.90
23379;DHT22;11862;46.070;13.222;2022-10-16T08:40:26;23.10;99.90
23379;DHT22;11862;46.070;13.222;2022-10-16T08:48:56;22.50;99.90
23379;DHT22;11862;46.070;13.222;2022-10-16T08:51:31;21.90;99.90
23379;DHT22;11862;46.070;13.222;2022-10-16T08:54:28;21.40;99.90
23379;DHT22;11862;46.070;13.222;2022-10-16T08:56:53;21.60;99.90
23379;DHT22;11862;46.070;13.222;2022-10-16T08:59:19;22.50;99.90
23379;DHT22;11862;46.070;13.222;2022-10-16T09:01:51;23.30;99.90
23379;DHT22;11862;46.070;13.222;2022-10-16T09:09:38;24.80;99.90
23379;DHT22;11862;46.070;13.222;2022-10-16T09:12:24;24.50;99.90
23379;DHT22;11862;46.070;13.222;2022-10-16T09:17:30;24.60;99.90
23379;DHT22;11862;46.070;13.222;2022-10-16T09:20:30;24.50;99.90
23379;DHT22;11862;46.070;13.222;2022-10-16T09:23:10;24.60;99.90
23379;DHT22;11862;46.070;13.222;2022-10-16T09:25:40;24.80;99.90
23379;DHT22;11862;46.070;13.222;2022-10-16T09:28:08;24.90;99.90
23379;DHT22;11862;46.070;13.222;2022-10-16T09:30:35;24.40;99.90
23379;DHT22;11862;46.070;13.222;2022-10-16T09:33:03;24.90;99.90
23379;DHT22;11862;46.070;13.222;2022-10-16T09:35:45;25.00;99.90
23379;DHT22;11862;46.070;13.222;2022-10-16T09:38:29;25.20;99.90
23379;DHT22;11862;46.070;13.222;2022-10-16T09:41:15;24.70;99.90
23379;DHT22;11862;46.070;13.222;2022-10-16T09:48:53;24.90;99.90
23379;DHT22;11862;46.070;13.222;2022-10-16T09:51:25;25.30;99.90
23379;DHT22;11862;46.070;13.222;2022-10-16T09:56:39;24.70;99.90
23379;DHT22;11862;46.070;13.222;2022-10-16T09:59:12;24.50;99.90
23379;DHT22;11862;46.070;13.222;2022-10-16T10:01:47;24.90;99.90
23379;DHT22;11862;46.070;13.222;2022-10-16T10:04:14;25.10;99.90
23379;DHT22;11862;46.070;13.222;2022-10-16T10:06:54;25.20;99.90
23379;DHT22;11862;46.070;13.222;2022-10-16T10:09:26;25.20;99.90
23379;DHT22;11862;46.070;13.222;2022-10-16T10:11:55;25.10;99.90
23379;DHT22;11862;46.070;13.222;2022-10-16T10:14:27;24.80;99.90
23379;DHT22;11862;46.070;13.222;2022-10-16T10:19:46;25.10;99.90
23379;DHT22;11862;46.070;13.222;2022-10-16T10:25:35;25.10;99.90
23379;DHT22;11862;46.070;13.222;2022-10-16T10:31:17;25.10;99.90
23379;DHT22;11862;46.070;13.222;2022-10-16T10:34:04;24.80;99.90
23379;DHT22;11862;46.070;13.222;2022-10-16T10:36:38;24.40;99.90
23379;DHT22;11862;46.070;13.222;2022-10-16T10:39:31;24.70;99.90
23379;DHT22;11862;46.070;13.222;2022-10-16T10:50:45;24.00;99.90
23379;DHT22;11862;46.070;13.222;2022-10-16T10:53:30;24.20;99.90
23379;DHT22;11862;46.070;13.222;2022-10-16T11:01:53;24.20;99.90
23379;DHT22;11862;46.070;13.222;2022-10-16T11:07:28;24.20;99.90
23379;DHT22;11862;46.070;13.222;2022-10-16T11:10:04;24.00;99.90
23379;DHT22;11862;46.070;13.222;2022-10-16T11:12:42;24.20;99.90
23379;DHT22;11862;46.070;13.222;2022-10-16T11:15:32;24.40;99.90
23379;DHT22;11862;46.070;13.222;2022-10-16T11:18:22;24.20;99.90
23379;DHT22;11862;46.070;13.222;2022-10-16T11:21:00;24.30;99.90
23379;DHT22;11862;46.070;13.222;2022-10-16T11:23:34;24.10;99.90
23379;DHT22;11862;46.070;13.222;2022-10-16T11:26:11;23.80;99.90
23379;DHT22;11862;46.070;13.222;2022-10-16T11:28:49;23.70;99.90
23379;DHT22;11862;46.070;13.222;2022-10-16T11:31:43;23.40;99.90
23379;DHT22;11862;46.070;13.222;2022-10-16T11:37:05;23.00;99.90
23379;DHT22;11862;46.070;13.222;2022-10-16T11:39:31;23.10;99.90
23379;DHT22;11862;46.070;13.222;2022-10-16T11:42:18;23.00;99.90
23379;DHT22;11862;46.070;13.222;2022-10-16T11:48:23;22.90;99.90
23379;DHT22;11862;46.070;13.222;2022-10-16T11:50:52;22.80;99.90
23379;DHT22;11862;46.070;13.222;2022-10-16T11:56:21;22.50;99.90
23379;DHT22;11862;46.070;13.222;2022-10-16T11:58:57;22.30;99.90
23379;DHT22;11862;46.070;13.222;2022-10-16T12:09:31;22.40;99.90
23379;DHT22;11862;46.070;13.222;2022-10-16T12:11:58;22.30;99.90
23379;DHT22;11862;46.070;13.222;2022-10-16T12:14:34;22.20;99.90
23379;DHT22;11862;46.070;13.222;2022-10-16T12:17:23;22.30;99.90
23379;DHT22;11862;46.070;13.222;2022-10-16T12:20:01;22.30;99.90
23379;DHT22;11862;46.070;13.222;2022-10-16T12:22:56;22.50;99.90
23379;DHT22;11862;46.070;13.222;2022-10-16T12:25:34;22.50;99.90
23379;DHT22;11862;46.070;13.222;2022-10-16T12:28:17;22.70;99.90
23379;DHT22;11862;46.070;13.222;2022-10-16T12:30:59;22.60;99.90
23379;DHT22;11862;46.070;13.222;2022-10-16T12:33:29;22.80;99.90
23379;DHT22;11862;46.070;13.222;2022-10-16T12:35:56;22.80;99.90
23379;DHT22;11862;46.070;13.222;2022-10-16T12:41:07;22.60;99.90
23379;DHT22;11862;46.070;13.222;2022-10-16T12:43:46;22.80;99.90
23379;DHT22;11862;46.070;13.222;2022-10-16T12:48:43;22.60;99.90
23379;DHT22;11862;46.070;13.222;2022-10-16T12:53:37;22.50;99.90
23379;DHT22;11862;46.070;13.222;2022-10-16T12:56:08;22.60;99.90
23379;DHT22;11862;46.070;13.222;2022-10-16T12:58:51;22.70;99.90
23379;DHT22;11862;46.070;13.222;2022-10-16T13:01:33;22.60;99.90
23379;DHT22;11862;46.070;13.222;2022-10-16T13:11:58;22.60;99.90
23379;DHT22;11862;46.070;13.222;2022-10-16T13:22:51;22.20;99.90
23379;DHT22;11862;46.070;13.222;2022-10-16T13:28:28;22.00;99.90
23379;DHT22;11862;46.070;13.222;2022-10-16T13:30:58;21.90;99.90
23379;DHT22;11862;46.070;13.222;2022-10-16T13:33:41;21.90;99.90
23379;DHT22;11862;46.070;13.222;2022-10-16T13:36:22;21.80;99.90
23379;DHT22;11862;46.070;13.222;2022-10-16T13:38:48;21.80;99.90
23379;DHT22;11862;46.070;13.222;2022-10-16T13:41:17;21.80;99.90
23379;DHT22;11862;46.070;13.222;2022-10-16T13:43:51;21.70;99.90
23379;DHT22;11862;46.070;13.222;2022-10-16T13:46:23;21.70;99.90
23379;DHT22;11862;46.070;13.222;2022-10-16T13:49:03;21.60;99.90
23379;DHT22;11862;46.070;13.222;2022-10-16T13:51:30;21.60;99.90
23379;DHT22;11862;46.070;13.222;2022-10-16T13:53:58;21.60;99.90
23379;DHT22;11862;46.070;13.222;2022-10-16T13:56:31;21.60;99.90
23379;DHT22;11862;46.070;13.222;2022-10-16T13:59:22;21.60;99.90
23379;DHT22;11862;46.070;13.222;2022-10-16T14:01:52;21.60;99.90
23379;DHT22;11862;46.070;13.222;2022-10-16T14:04:19;21.70;99.90
23379;DHT22;11862;46.070;13.222;2022-10-16T14:06:48;21.70;99.90
23379;DHT22;11862;46.070;13.222;2022-10-16T14:09:24;21.70;99.90
23379;DHT22;11862;46.070;13.222;2022-10-16T14:12:11;21.60;99.90
23379;DHT22;11862;46.070;13.222;2022-10-16T14:14:43;21.60;99.90
23379;DHT22;11862;46.070;13.222;2022-10-16T14:17:22;21.60;99.90
23379;DHT22;11862;46.070;13.222;2022-10-16T14:19:51;21.60;99.90
23379;DHT22;11862;46.070;13.222;2022-10-16T14:24:55;21.50;99.90
23379;DHT22;11862;46.070;13.222;2022-10-16T14:27:30;21.50;99.90
23379;DHT22;11862;46.070;13.222;2022-10-16T14:30:18;21.40;99.90
23379;DHT22;11862;46.070;13.222;2022-10-16T14:33:19;21.30;99.90
23379;DHT22;11862;46.070;13.222;2022-10-16T14:35:44;21.30;99.90
23379;DHT22;11862;46.070;13.222;2022-10-16T14:38:19;21.40;99.90
23379;DHT22;11862;46.070;13.222;2022-10-16T14:40:49;21.30;99.90
23379;DHT22;11862;46.070;13.222;2022-10-16T14:43:43;21.20;99.90
23379;DHT22;11862;46.070;13.222;2022-10-16T14:46:17;21.20;99.90
23379;DHT22;11862;46.070;13.222;2022-10-16T14:48:47;21.20;99.90
23379;DHT22;11862;46.070;13.222;2022-10-16T14:51:16;21.20;99.90
23379;DHT22;11862;46.070;13.222;2022-10-16T14:53:43;21.10;99.90
23379;DHT22;11862;46.070;13.222;2022-10-16T14:56:24;21.10;99.90
23379;DHT22;11862;46.070;13.222;2022-10-16T14:58:51;21.10;99.90
23379;DHT22;11862;46.070;13.222;2022-10-16T15:01:18;21.10;99.90
23379;DHT22;11862;46.070;13.222;2022-10-16T15:03:44;21.10;99.90
23379;DHT22;11862;46.070;13.222;2022-10-16T15:06:15;21.10;99.90
23379;DHT22;11862;46.070;13.222;2022-10-16T15:08:42;21.10;99.90
23379;DHT22;11862;46.070;13.222;2022-10-16T15:11:12;21.10;99.90
23379;DHT22;11862;46.070;13.222;2022-10-16T15:13:39;21.10;99.90
23379;DHT22;11862;46.070;13.222;2022-10-16T15:16:11;21.00;99.90
23379;DHT22;11862;46.070;13.222;2022-10-16T15:18:37;21.00;99.90
23379;DHT22;11862;46.070;13.222;2022-10-16T15:21:03;20.90;99.90
23379;DHT22;11862;46.070;13.222;2022-10-16T15:23:31;20.90;99.90
23379;DHT22;11862;46.070;13.222;2022-10-16T15:25:57;20.90;99.90
23379;DHT22;11862;46.070;13.222;2022-10-16T15:28:24;20.80;99.90
23379;DHT22;11862;46.070;13.222;2022-10-16T15:30:55;20.70;99.90
23379;DHT22;11862;46.070;13.222;2022-10-16T15:33:24;20.70;99.90
23379;DHT22;11862;46.070;13.222;2022-10-16T15:35:53;20.70;99.90
23379;DHT22;11862;46.070;13.222;2022-10-16T15:38:20;20.60;99.90
23379;DHT22;11862;46.070;13.222;2022-10-16T15:40:50;20.50;99.90
23379;DHT22;11862;46.070;13.222;2022-10-16T15:43:17;20.40;99.90
23379;DHT22;11862;46.070;13.222;2022-10-16T15:45:44;20.30;99.90
23379;DHT22;11862;46.070;13.222;2022-10-16T15:48:12;20.20;99.90
23379;DHT22;11862;46.070;13.222;2022-10-16T15:50:39;20.00;99.90
23379;DHT22;11862;46.070;13.222;2022-10-16T15:53:05;20.00;99.90
23379;DHT22;11862;46.070;13.222;2022-10-16T15:55:31;19.90;99.90
23379;DHT22;11862;46.070;13.222;2022-10-16T15:57:59;19.80;99.90
23379;DHT22;11862;46.070;13.222;2022-10-16T16:00:27;19.70;99.90
23379;DHT22;11862;46.070;13.222;2022-10-16T16:02:54;19.60;99.90
23379;DHT22;11862;46.070;13.222;2022-10-16T16:05:21;19.50;99.90
23379;DHT22;11862;46.070;13.222;2022-10-16T16:07:48;19.40;99.90
23379;DHT22;11862;46.070;13.222;2022-10-16T16:10:15;19.40;99.90
23379;DHT22;11862;46.070;13.222;2022-10-16T16:12:41;19.30;99.90
23379;DHT22;11862;46.070;13.222;2022-10-16T16:15:09;19.20;99.90
23379;DHT22;11862;46.070;13.222;2022-10-16T16:17:35;19.10;99.90
23379;DHT22;11862;46.070;13.222;2022-10-16T16:20:03;19.00;99.90
23379;DHT22;11862;46.070;13.222;2022-10-16T16:22:30;19.00;99.90
23379;DHT22;11862;46.070;13.222;2022-10-16T16:24:56;18.90;99.90
23379;DHT22;11862;46.070;13.222;2022-10-16T16:27:22;18.80;99.90
23379;DHT22;11862;46.070;13.222;2022-10-16T16:29:50;18.70;99.90
23379;DHT22;11862;46.070;13.222;2022-10-16T16:32:21;18.70;99.90
23379;DHT22;11862;46.070;13.222;2022-10-16T16:34:47;18.60;99.90
23379;DHT22;11862;46.070;13.222;2022-10-16T16:37:13;18.50;99.90
23379;DHT22;11862;46.070;13.222;2022-10-16T16:39:39;18.50;99.90
23379;DHT22;11862;46.070;13.222;2022-10-16T16:42:05;18.60;99.90
23379;DHT22;11862;46.070;13.222;2022-10-16T16:44:33;18.50;99.90
23379;DHT22;11862;46.070;13.222;2022-10-16T16:47:02;18.60;99.90
23379;DHT22;11862;46.070;13.222;2022-10-16T16:49:28;18.50;99.90
23379;DHT22;11862;46.070;13.222;2022-10-16T16:51:54;18.50;99.90
23379;DHT22;11862;46.070;13.222;2022-10-16T16:54:20;18.40;99.90
23379;DHT22;11862;46.070;13.222;2022-10-16T16:56:46;18.30;99.90
23379;DHT22;11862;46.070;13.222;2022-10-16T16:59:20;18.30;99.90
23379;DHT22;11862;46.070;13.222;2022-10-16T17:01:47;18.20;99.90
23379;DHT22;11862;46.070;13.222;2022-10-16T17:04:14;18.10;99.90
23379;DHT22;11862;46.070;13.222;2022-10-16T17:06:44;18.10;99.90
23379;DHT22;11862;46.070;13.222;2022-10-16T17:09:10;18.10;99.90
23379;DHT22;11862;46.070;13.222;2022-10-16T17:11:39;18.00;99.90
23379;DHT22;11862;46.070;13.222;2022-10-16T17:14:07;17.90;99.90
23379;DHT22;11862;46.070;13.222;2022-10-16T17:16:38;17.90;99.90
23379;DHT22;11862;46.070;13.222;2022-10-16T17:19:13;17.80;99.90
23379;DHT22;11862;46.070;13.222;2022-10-16T17:21:40;17.80;99.90
23379;DHT22;11862;46.070;13.222;2022-10-16T17:24:06;17.90;99.90
23379;DHT22;11862;46.070;13.222;2022-10-16T17:26:32;17.90;99.90
23379;DHT22;11862;46.070;13.222;2022-10-16T17:29:01;17.80;99.90
23379;DHT22;11862;46.070;13.222;2022-10-16T17:31:38;17.70;99.90
23379;DHT22;11862;46.070;13.222;2022-10-16T17:34:07;17.70;99.90
23379;DHT22;11862;46.070;13.222;2022-10-16T17:36:35;17.70;99.90